createdAt,value
2022-10-16T00:01:44.190Z,85.18
2022-10-16T00:04:11.481Z,85.18
2022-10-16T00:06:39.045Z,84.84
2022-10-16T00:09:07.568Z,84.89
2022-10-16T00:11:39.165Z,84.69
2022-10-16T00:14:14.543Z,84.94
2022-10-16T00:16:42.982Z,84.94
2022-10-16T00:19:13.107Z,85.81
2022-10-16T00:21:40.909Z,85.35
2022-10-16T00:24:10.681Z,85.23
2022-10-16T00:26:40.026Z,85.55
2022-10-16T00:29:08.716Z,85.49
2022-10-16T00:31:36.920Z,85.48
2022-10-16T00:34:04.818Z,85.02
2022-10-16T00:36:33.110Z,84.91
2022-10-16T00:39:02.272Z,84.89
2022-10-16T00:41:31.427Z,84.78
2022-10-16T00:44:43.863Z,84.45
2022-10-16T00:47:18.839Z,84.52
2022-10-16T00:49:48.819Z,84.46
2022-10-16T00:52:16.358Z,84.37
2022-10-16T00:54:44.176Z,84.44
2022-10-16T00:57:11.772Z,84.94
2022-10-16T00:59:43.395Z,84.74
2022-10-16T01:02:15.420Z,85.44
2022-10-16T01:04:55.006Z,85.55
2022-10-16T01:07:59.575Z,85.06
2022-10-16T01:10:46.239Z,84.71
2022-10-16T01:13:42.106Z,84.39
2022-10-16T01:16:26.082Z,84.34
2022-10-16T01:19:10.469Z,84.42
2022-10-16T01:21:44.629Z,84.34
2022-10-16T01:24:30.529Z,84.68
2022-10-16T01:27:22.158Z,84.71
2022-10-16T01:30:17.193Z,85.99
2022-10-16T01:32:58.057Z,85.81
2022-10-16T01:35:33.307Z,86.29
2022-10-16T01:38:14.389Z,86.38
2022-10-16T01:40:51.662Z,86.41
2022-10-16T01:43:26.449Z,87.29
2022-10-16T01:45:55.290Z,87.96
2022-10-16T01:48:24.968Z,87.68
2022-10-16T01:51:09.696Z,87.52
2022-10-16T01:53:38.559Z,87.56
2022-10-16T01:56:13.077Z,88.21
2022-10-16T01:58:50.885Z,88.59
2022-10-16T02:01:24.015Z,88.64
2022-10-16T02:03:57.469Z,88.50
2022-10-16T02:06:26.080Z,89.04
2022-10-16T02:08:54.650Z,89.24
2022-10-16T02:11:22.100Z,88.94
2022-10-16T02:14:05.949Z,88.99
2022-10-16T02:16:41.804Z,89.02
2022-10-16T02:19:09.846Z,89.59
2022-10-16T02:22:05.562Z,89.30
2022-10-16T02:25:08.307Z,88.97
2022-10-16T02:27:53.265Z,89.54
2022-10-16T02:30:43.326Z,90.15
2022-10-16T02:33:16.736Z,90.24
2022-10-16T02:35:47.396Z,90.42
2022-10-16T02:38:18.438Z,90.42
2022-10-16T02:40:46.246Z,90.45
2022-10-16T02:43:14.501Z,90.75
2022-10-16T02:45:42.016Z,91.13
2022-10-16T02:48:09.506Z,90.95
2022-10-16T02:50:36.918Z,90.98
2022-10-16T02:53:04.402Z,90.82
2022-10-16T02:55:31.647Z,91.71
2022-10-16T02:57:59.054Z,90.98
2022-10-16T03:00:26.165Z,90.77
2022-10-16T03:02:53.597Z,90.83
2022-10-16T03:07:53.758Z,91.46
2022-10-16T03:10:21.138Z,91.23
2022-10-16T03:12:48.514Z,91.31
2022-10-16T03:15:15.724Z,91.44
2022-10-16T03:17:43.056Z,91.27
2022-10-16T03:20:11.160Z,91.26
2022-10-16T03:22:38.502Z,91.45
2022-10-16T03:25:06.351Z,91.46
2022-10-16T03:27:33.652Z,91.93
2022-10-16T03:30:00.802Z,92.03
2022-10-16T03:32:29.655Z,92.40
2022-10-16T03:34:58.003Z,92.11
2022-10-16T03:37:26.049Z,92.43
2022-10-16T03:39:53.481Z,92.28
2022-10-16T03:42:20.824Z,92.29
2022-10-16T03:44:48.106Z,92.23
2022-10-16T03:47:15.457Z,92.05
2022-10-16T03:49:42.624Z,91.89
2022-10-16T03:52:10.002Z,92.14
2022-10-16T03:54:37.233Z,92.10
2022-10-16T03:57:04.599Z,92.01
2022-10-16T03:59:31.816Z,91.96
2022-10-16T04:01:59.237Z,91.75
2022-10-16T04:04:26.488Z,91.37
2022-10-16T04:06:53.894Z,90.98
2022-10-16T04:09:21.035Z,91.00
2022-10-16T04:11:48.458Z,90.43
2022-10-16T04:14:15.812Z,90.07
2022-10-16T04:16:43.193Z,89.67
2022-10-16T04:19:12.170Z,89.52
2022-10-16T04:21:39.653Z,89.01
2022-10-16T04:24:06.942Z,89.09
2022-10-16T04:26:34.429Z,88.89
2022-10-16T04:29:01.696Z,88.93
2022-10-16T04:31:29.369Z,88.89
2022-10-16T04:33:56.659Z,88.75
2022-10-16T04:36:26.804Z,88.56
2022-10-16T04:38:56.379Z,88.50
2022-10-16T04:41:23.793Z,88.66
2022-10-16T04:43:50.979Z,88.25
2022-10-16T04:46:18.367Z,88.39
2022-10-16T04:48:45.506Z,88.41
2022-10-16T04:51:12.915Z,88.39
2022-10-16T04:53:40.073Z,88.46
2022-10-16T04:56:07.475Z,89.43
2022-10-16T04:58:34.676Z,88.80
2022-10-16T05:01:02.066Z,88.54
2022-10-16T05:03:32.224Z,88.48
2022-10-16T05:05:59.596Z,88.90
2022-10-16T05:08:26.798Z,88.49
2022-10-16T05:10:54.172Z,88.44
2022-10-16T05:13:21.468Z,88.54
2022-10-16T05:15:49.887Z,88.62
2022-10-16T05:18:17.837Z,88.58
2022-10-16T05:20:45.285Z,88.67
2022-10-16T05:25:41.034Z,88.19
2022-10-16T05:28:08.230Z,87.94
2022-10-16T05:30:37.879Z,88.26
2022-10-16T05:33:05.411Z,87.77
2022-10-16T05:35:32.983Z,87.73
2022-10-16T05:38:00.183Z,87.45
2022-10-16T05:40:27.542Z,87.45
2022-10-16T05:42:57.177Z,86.77
2022-10-16T05:45:24.832Z,86.47
2022-10-16T05:47:52.389Z,86.20
2022-10-16T05:50:19.743Z,85.57
2022-10-16T05:52:46.954Z,85.18
2022-10-16T05:55:14.386Z,84.94
2022-10-16T05:57:41.600Z,84.85
2022-10-16T06:00:09.993Z,84.16
2022-10-16T06:02:37.206Z,83.40
2022-10-16T06:05:04.960Z,83.29
2022-10-16T06:07:36.782Z,83.09
2022-10-16T06:10:05.938Z,82.68
2022-10-16T06:12:33.133Z,81.97
2022-10-16T06:15:00.434Z,81.58
2022-10-16T06:17:27.899Z,81.03
2022-10-16T06:19:55.464Z,80.76
2022-10-16T06:22:22.656Z,80.04
2022-10-16T06:24:50.919Z,79.50
2022-10-16T06:27:18.145Z,78.99
2022-10-16T06:29:46.297Z,78.81
2022-10-16T06:32:13.702Z,77.77
2022-10-16T06:34:44.127Z,77.66
2022-10-16T06:37:11.443Z,76.43
2022-10-16T06:39:38.758Z,75.61
2022-10-16T06:42:05.890Z,74.52
2022-10-16T06:44:33.243Z,73.59
2022-10-16T06:47:00.773Z,72.77
2022-10-16T06:49:29.641Z,72.79
2022-10-16T06:51:56.802Z,71.46
2022-10-16T06:54:24.091Z,70.46
2022-10-16T06:56:52.727Z,69.65
2022-10-16T06:59:20.217Z,68.95
2022-10-16T07:01:47.502Z,68.86
2022-10-16T07:04:14.972Z,68.19
2022-10-16T07:06:42.129Z,67.52
2022-10-16T07:09:12.569Z,67.41
2022-10-16T07:11:41.398Z,66.66
2022-10-16T07:14:19.074Z,66.00
2022-10-16T07:16:46.935Z,64.85
2022-10-16T07:19:16.427Z,64.16
2022-10-16T07:21:43.764Z,63.64
2022-10-16T07:24:17.451Z,63.40
2022-10-16T07:26:47.152Z,63.84
2022-10-16T07:29:18.463Z,63.40
2022-10-16T07:31:46.993Z,62.99
2022-10-16T07:34:18.753Z,62.55
2022-10-16T07:36:49.747Z,60.76
2022-10-16T07:39:17.532Z,57.14
2022-10-16T07:41:44.920Z,49.76
2022-10-16T07:44:12.387Z,49.48
2022-10-16T07:46:39.609Z,50.13
2022-10-16T07:49:07.033Z,48.39
2022-10-16T07:51:34.683Z,48.30
2022-10-16T07:54:02.637Z,48.86
2022-10-16T07:56:33.762Z,50.32
2022-10-16T07:59:01.208Z,50.61
2022-10-16T08:01:28.796Z,50.65
2022-10-16T08:03:56.322Z,49.60
2022-10-16T08:06:27.599Z,49.24
2022-10-16T08:08:57.103Z,44.04
2022-10-16T08:11:24.616Z,42.46
2022-10-16T08:13:52.108Z,42.92
2022-10-16T08:16:19.318Z,44.08
2022-10-16T08:18:47.336Z,43.88
2022-10-16T08:21:20.399Z,45.08
2022-10-16T08:23:53.054Z,43.94
2022-10-16T08:26:24.655Z,43.68
2022-10-16T08:28:52.989Z,43.20
2022-10-16T08:31:21.523Z,39.07
2022-10-16T08:33:49.198Z,33.21
2022-10-16T08:36:17.462Z,30.50
2022-10-16T08:38:45.201Z,31.04
2022-10-16T08:41:38.909Z,31.20
2022-10-16T08:44:41.464Z,29.06
2022-10-16T08:47:11.399Z,28.16
2022-10-16T08:49:44.027Z,30.88
2022-10-16T08:52:17.030Z,32.76
2022-10-16T08:54:52.770Z,34.97
2022-10-16T08:57:27.317Z,36.67
2022-10-16T09:00:01.381Z,37.75
2022-10-16T09:02:45.886Z,38.71
2022-10-16T09:05:22.225Z,39.13
2022-10-16T09:08:46.013Z,39.36
2022-10-16T09:11:38.075Z,36.80
2022-10-16T09:14:38.841Z,36.30
2022-10-16T09:17:45.384Z,36.34
2022-10-16T09:20:39.437Z,36.04
2022-10-16T09:23:06.770Z,34.70
2022-10-16T09:25:35.000Z,29.12
2022-10-16T09:28:02.416Z,24.92
2022-10-16T09:30:30.927Z,23.00
2022-10-16T09:32:59.992Z,23.03
2022-10-16T09:35:47.377Z,22.50
2022-10-16T09:38:35.105Z,22.13
2022-10-16T09:41:19.608Z,23.85
2022-10-16T09:43:57.999Z,26.59
2022-10-16T09:46:35.875Z,28.36
2022-10-16T09:49:19.537Z,27.60
2022-10-16T09:51:46.664Z,26.55
2022-10-16T09:54:20.912Z,26.44
2022-10-16T09:56:53.353Z,28.65
2022-10-16T09:59:28.170Z,31.38
2022-10-16T10:01:56.723Z,33.31
2022-10-16T10:04:26.986Z,34.73
2022-10-16T10:06:59.199Z,35.88
2022-10-16T10:09:48.497Z,37.24
2022-10-16T10:12:34.681Z,37.78
2022-10-16T10:15:22.645Z,38.90
2022-10-16T10:17:59.665Z,39.94
2022-10-16T10:20:39.769Z,41.31
2022-10-16T10:23:27.359Z,42.31
2022-10-16T10:26:17.290Z,43.43
2022-10-16T10:28:56.362Z,43.10
2022-10-16T10:31:55.369Z,43.73
2022-10-16T10:34:49.040Z,44.78
2022-10-16T10:38:21.255Z,46.99
2022-10-16T10:40:48.598Z,47.56
2022-10-16T10:43:34.557Z,48.31
2022-10-16T10:46:11.807Z,48.77
2022-10-16T10:49:17.668Z,48.19
2022-10-16T10:51:59.923Z,48.33
2022-10-16T10:54:51.757Z,48.26
2022-10-16T11:00:29.701Z,46.71
2022-10-16T11:03:34.609Z,46.15
2022-10-16T11:06:25.716Z,45.15
2022-10-16T11:09:16.309Z,44.98
2022-10-16T11:11:52.936Z,44.42
2022-10-16T11:14:37.552Z,44.55
2022-10-16T11:17:27.209Z,44.76
2022-10-16T11:20:31.375Z,44.53
2022-10-16T11:23:17.698Z,45.31
2022-10-16T11:25:48.383Z,45.00
2022-10-16T11:28:30.876Z,45.54
2022-10-16T11:31:11.296Z,45.22
2022-10-16T11:34:04.525Z,45.26
2022-10-16T11:37:04.440Z,44.57
2022-10-16T11:39:32.961Z,45.34
2022-10-16T11:42:14.979Z,45.60
2022-10-16T11:45:44.257Z,45.23
2022-10-16T11:48:25.795Z,44.17
2022-10-16T11:51:24.258Z,41.43
2022-10-16T11:54:25.036Z,37.01
2022-10-16T11:56:58.913Z,32.95
2022-10-16T12:00:24.953Z,29.11
2022-10-16T12:03:24.765Z,28.63
2022-10-16T12:06:24.584Z,28.63
2022-10-16T12:08:54.574Z,27.40
2022-10-16T12:11:31.707Z,24.44
2022-10-16T12:14:14.323Z,22.64
2022-10-16T12:17:00.157Z,22.41
2022-10-16T12:19:31.120Z,21.73
2022-10-16T12:22:02.412Z,22.36
2022-10-16T12:24:41.965Z,21.98
2022-10-16T12:27:31.383Z,23.47
2022-10-16T12:30:09.321Z,24.92
2022-10-16T12:32:48.309Z,27.11
2022-10-16T12:35:30.667Z,26.62
2022-10-16T12:38:18.845Z,26.25
2022-10-16T12:41:15.266Z,27.70
2022-10-16T12:43:46.407Z,28.08
2022-10-16T12:46:13.730Z,28.25
2022-10-16T12:49:05.211Z,29.22
2022-10-16T12:51:32.883Z,30.76
2022-10-16T12:54:28.738Z,32.23
2022-10-16T12:57:28.634Z,34.55
2022-10-16T13:00:29.990Z,35.33
2022-10-16T13:03:22.046Z,37.21
2022-10-16T13:06:46.830Z,37.68
2022-10-16T13:09:48.829Z,37.03
2022-10-16T13:12:45.865Z,35.61
2022-10-16T13:15:22.544Z,36.08
2022-10-16T13:18:20.608Z,36.30
2022-10-16T13:21:04.174Z,37.88
2022-10-16T13:23:53.128Z,39.30
2022-10-16T13:27:09.088Z,40.23
2022-10-16T13:29:36.794Z,40.62
2022-10-16T13:32:13.822Z,40.75
2022-10-16T13:34:49.784Z,39.50
2022-10-16T13:37:22.042Z,37.30
2022-10-16T13:39:51.602Z,36.22
2022-10-16T13:42:28.905Z,35.75
2022-10-16T13:44:57.661Z,36.38
2022-10-16T13:47:31.030Z,31.98
2022-10-16T13:50:20.991Z,27.60
2022-10-16T13:52:48.489Z,26.14
2022-10-16T13:55:18.749Z,25.44
2022-10-16T13:57:46.498Z,25.10
2022-10-16T14:00:33.302Z,24.53
2022-10-16T14:03:07.921Z,24.15
2022-10-16T14:05:36.029Z,23.67
2022-10-16T14:08:03.643Z,22.92
2022-10-16T14:10:34.565Z,22.89
2022-10-16T14:13:05.432Z,23.22
2022-10-16T14:15:36.604Z,22.84
2022-10-16T14:18:05.479Z,22.83
2022-10-16T14:20:35.669Z,23.46
2022-10-16T14:23:20.073Z,23.11
2022-10-16T14:25:48.039Z,23.05
2022-10-16T14:28:22.805Z,23.11
2022-10-16T14:30:59.870Z,23.42
2022-10-16T14:33:30.741Z,23.32
2022-10-16T14:36:15.369Z,24.16
2022-10-16T14:38:58.333Z,24.25
2022-10-16T14:41:26.216Z,25.02
2022-10-16T14:44:05.382Z,26.12
2022-10-16T14:46:41.347Z,25.92
2022-10-16T14:49:11.454Z,25.83
2022-10-16T14:51:45.680Z,27.34
2022-10-16T14:54:16.337Z,27.72
2022-10-16T14:56:55.567Z,28.32
2022-10-16T14:59:39.563Z,28.35
2022-10-16T15:02:21.949Z,29.56
2022-10-16T15:04:50.339Z,30.92
2022-10-16T15:07:17.889Z,31.25
2022-10-16T15:09:49.053Z,32.73
2022-10-16T15:12:18.151Z,35.30
2022-10-16T15:14:45.651Z,36.85
2022-10-16T15:17:13.946Z,38.34
2022-10-16T15:19:42.962Z,40.22
2022-10-16T15:22:12.947Z,41.32
2022-10-16T15:24:40.579Z,42.63
2022-10-16T15:27:07.778Z,43.20
2022-10-16T15:29:35.196Z,45.26
2022-10-16T15:32:02.382Z,45.78
2022-10-16T15:34:29.753Z,46.77
2022-10-16T15:36:58.868Z,46.66
2022-10-16T15:39:26.451Z,48.44
2022-10-16T15:41:54.343Z,48.62
2022-10-16T15:44:30.603Z,49.66
2022-10-16T15:46:57.999Z,50.38
2022-10-16T15:49:25.494Z,51.62
2022-10-16T15:51:54.143Z,51.75
2022-10-16T15:54:23.783Z,52.59
2022-10-16T15:56:50.975Z,53.03
2022-10-16T15:59:18.395Z,53.87
2022-10-16T16:01:46.243Z,54.46
2022-10-16T16:04:32.022Z,54.34
2022-10-16T16:07:02.293Z,54.80
2022-10-16T16:09:32.564Z,55.97
2022-10-16T16:12:01.880Z,56.30
2022-10-16T16:14:29.528Z,57.00
2022-10-16T16:16:57.355Z,56.82
2022-10-16T16:19:25.212Z,56.91
2022-10-16T16:21:52.475Z,58.85
2022-10-16T16:24:20.431Z,59.16
2022-10-16T16:26:47.709Z,59.30
2022-10-16T16:29:16.846Z,59.67
2022-10-16T16:31:44.340Z,60.49
2022-10-16T16:34:11.813Z,60.94
2022-10-16T16:36:39.884Z,62.39
2022-10-16T16:39:08.854Z,63.52
2022-10-16T16:41:36.167Z,64.04
2022-10-16T16:44:08.492Z,63.49
2022-10-16T16:46:36.293Z,64.57
2022-10-16T16:49:04.580Z,64.55
2022-10-16T16:51:33.748Z,64.65
2022-10-16T16:54:03.036Z,64.47
2022-10-16T16:56:30.169Z,64.65
2022-10-16T16:58:58.610Z,65.23
2022-10-16T17:01:28.315Z,66.46
2022-10-16T17:03:58.192Z,66.82
2022-10-16T17:06:30.621Z,66.72
2022-10-16T17:08:58.945Z,67.69
2022-10-16T17:11:28.149Z,68.26
2022-10-16T17:13:58.386Z,67.77
2022-10-16T17:16:33.897Z,68.32
2022-10-16T17:19:08.897Z,68.54
2022-10-16T17:21:37.311Z,68.34
2022-10-16T17:24:06.064Z,68.48
2022-10-16T17:26:38.295Z,69.38
2022-10-16T17:29:06.094Z,69.46
2022-10-16T17:31:37.361Z,69.40
2022-10-16T17:34:09.170Z,69.66
2022-10-16T17:36:39.413Z,69.35
2022-10-16T17:39:09.219Z,70.27
2022-10-16T17:41:37.656Z,69.68
2022-10-16T17:44:06.854Z,70.36
2022-10-16T17:46:38.294Z,70.38
2022-10-16T17:49:09.799Z,70.37
2022-10-16T17:51:37.194Z,70.78
2022-10-16T17:54:04.999Z,70.89
2022-10-16T17:56:32.337Z,70.86
2022-10-16T17:59:02.165Z,70.89
2022-10-16T18:01:36.983Z,71.29
2022-10-16T18:04:13.146Z,70.91
2022-10-16T18:06:43.932Z,70.76
2022-10-16T18:09:15.975Z,71.03
2022-10-16T18:11:43.181Z,71.49
2022-10-16T18:14:14.818Z,71.10
2022-10-16T18:16:42.474Z,70.97
2022-10-16T18:19:13.228Z,70.98
2022-10-16T18:21:41.347Z,71.22
2022-10-16T18:24:10.208Z,71.85
2022-10-16T18:26:38.609Z,71.99
2022-10-16T18:29:06.285Z,72.50
2022-10-16T18:31:34.482Z,72.80
2022-10-16T18:34:04.110Z,72.83
2022-10-16T18:36:34.454Z,73.34
2022-10-16T18:39:10.813Z,73.53
2022-10-16T18:41:44.917Z,74.18
2022-10-16T18:44:13.410Z,73.94
2022-10-16T18:46:41.335Z,74.43
2022-10-16T18:49:09.125Z,74.44
2022-10-16T18:51:40.856Z,74.21
2022-10-16T18:54:12.234Z,74.85
2022-10-16T18:56:40.469Z,75.37
2022-10-16T18:59:09.687Z,75.24
2022-10-16T19:01:40.975Z,75.08
2022-10-16T19:04:12.847Z,75.39
2022-10-16T19:06:46.152Z,75.74
2022-10-16T19:09:15.651Z,75.66
2022-10-16T19:11:43.881Z,76.33
2022-10-16T19:14:13.809Z,76.48
2022-10-16T19:16:43.092Z,76.63
2022-10-16T19:19:18.439Z,76.46
2022-10-16T19:21:47.873Z,76.91
2022-10-16T19:24:16.977Z,76.95
2022-10-16T19:26:44.833Z,76.97
2022-10-16T19:29:12.516Z,77.68
2022-10-16T19:31:40.952Z,77.64
2022-10-16T19:34:10.766Z,78.12
2022-10-16T19:36:40.031Z,77.60
2022-10-16T19:39:14.023Z,78.48
2022-10-16T19:41:41.792Z,78.21
2022-10-16T19:44:13.383Z,78.88
2022-10-16T19:46:41.063Z,78.44
2022-10-16T19:49:13.344Z,79.29
2022-10-16T19:51:40.872Z,78.74
2022-10-16T19:54:13.298Z,78.92
2022-10-16T19:56:41.647Z,78.36
2022-10-16T19:59:13.164Z,78.67
2022-10-16T20:01:40.605Z,78.62
2022-10-16T20:04:08.190Z,78.59
2022-10-16T20:06:35.483Z,78.76
2022-10-16T20:09:03.041Z,78.91
2022-10-16T20:11:33.485Z,79.32
2022-10-16T20:14:02.051Z,78.96
2022-10-16T20:16:30.959Z,78.22
2022-10-16T20:18:59.257Z,78.41
2022-10-16T20:21:30.727Z,78.39
2022-10-16T20:24:01.003Z,78.62
2022-10-16T20:26:28.465Z,79.16
2022-10-16T20:28:56.451Z,78.80
2022-10-16T20:31:30.159Z,78.34
2022-10-16T20:34:02.126Z,78.19
2022-10-16T20:36:30.768Z,77.88
2022-10-16T20:38:58.679Z,77.95
2022-10-16T20:41:25.976Z,77.85
2022-10-16T20:43:55.990Z,77.79
2022-10-16T20:46:26.727Z,77.58
2022-10-16T20:49:02.330Z,77.54
2022-10-16T20:51:38.415Z,77.76
2022-10-16T20:54:07.495Z,77.95
2022-10-16T20:56:37.247Z,78.64
2022-10-16T20:59:05.951Z,78.69
2022-10-16T21:01:35.691Z,78.55
2022-10-16T21:04:07.121Z,79.05
2022-10-16T21:06:38.712Z,78.85
2022-10-16T21:09:07.712Z,79.46
2022-10-16T21:11:37.430Z,79.65
2022-10-16T21:14:09.021Z,79.59
2022-10-16T21:16:36.824Z,79.75
2022-10-16T21:19:05.602Z,79.62
2022-10-16T21:21:37.990Z,79.49
2022-10-16T21:24:09.905Z,79.91
2022-10-16T21:26:39.574Z,79.62
2022-10-16T21:29:07.948Z,79.30
2022-10-16T21:31:36.143Z,79.18
2022-10-16T21:34:04.431Z,78.70
2022-10-16T21:36:39.435Z,78.80
2022-10-16T21:39:19.534Z,78.80
2022-10-16T21:41:50.176Z,78.77
2022-10-16T21:44:20.153Z,78.66
2022-10-16T21:46:47.839Z,78.35
2022-10-16T21:49:19.443Z,78.52
2022-10-16T21:51:50.286Z,78.85
2022-10-16T21:54:22.494Z,79.00
2022-10-16T21:56:50.379Z,80.16
2022-10-16T21:59:18.236Z,80.81
2022-10-16T22:01:45.515Z,81.28
2022-10-16T22:04:16.743Z,80.94
2022-10-16T22:06:44.339Z,80.85
2022-10-16T22:09:14.375Z,80.96
2022-10-16T22:11:44.625Z,80.74
2022-10-16T22:14:17.663Z,80.82
2022-10-16T22:16:46.074Z,80.67
2022-10-16T22:19:16.385Z,80.78
2022-10-16T22:21:47.851Z,80.91
2022-10-16T22:24:16.637Z,80.67
2022-10-16T22:26:45.425Z,80.62
2022-10-16T22:29:14.713Z,80.72
2022-10-16T22:31:43.286Z,80.89
2022-10-16T22:34:14.387Z,80.74
2022-10-16T22:36:41.753Z,81.48
2022-10-16T22:39:10.539Z,80.99
2022-10-16T22:41:38.018Z,81.15
2022-10-16T22:44:05.539Z,81.34
2022-10-16T22:46:32.794Z,81.22
2022-10-16T22:49:00.288Z,81.17
2022-10-16T22:51:28.253Z,81.00
2022-10-16T22:53:59.261Z,80.75
2022-10-16T22:56:26.964Z,80.71
2022-10-16T22:58:54.528Z,80.70
2022-10-16T23:01:29.781Z,80.60
2022-10-16T23:03:57.625Z,80.66
2022-10-16T23:06:25.071Z,80.60
2022-10-16T23:08:58.844Z,80.82
2022-10-16T23:11:28.371Z,80.94
2022-10-16T23:13:56.421Z,81.09
2022-10-16T23:16:24.123Z,81.33
2022-10-16T23:18:52.168Z,80.94
2022-10-16T23:21:25.299Z,80.80
2022-10-16T23:23:54.531Z,80.88
2022-10-16T23:26:25.291Z,81.40
2022-10-16T23:28:54.998Z,81.09
2022-10-16T23:31:22.299Z,81.48
2022-10-16T23:33:49.646Z,81.70
2022-10-16T23:36:21.276Z,81.75
2022-10-16T23:38:50.157Z,81.35
2022-10-16T23:41:19.797Z,81.20
2022-10-16T23:43:47.965Z,81.20
2022-10-16T23:46:15.994Z,81.91
2022-10-16T23:48:44.279Z,81.34
2022-10-16T23:51:12.266Z,81.44
2022-10-16T23:53:40.052Z,81.09
2022-10-16T23:56:07.714Z,80.82
2022-10-16T23:58:35.999Z,80.92
